Opelika, Alabama
Current Conditions -  °F | °C
As of 10:55 PM on Monday 22 Dec 2014 (Local Time) from KAUO Reporting Station
Overcast Overcast  
Wind Chill: 43°   Ceiling: 200
Heat Index: 46°   Visibility: 1mi
Dew Point: 45°   Wind: 7mph
Humidity: 93%   Direction: 110°ESE
Pressure: 29.9"   Gusts: NA
Location:  32.65°N, 85.38°W
Report Text: KAUO 230455Z AUTO 11006KT 1SM OVC002 08/07 A2990 RMK AO1
Loading
Personal Weather Stations






























Interactive Weather Map New forecast layout! Learn more

10-Day Weather Forecast

Advertisements
Track Severe Weather on mobile